createdAt,value
2022-12-19T00:00:00.271Z,69.91
2022-12-19T00:02:33.805Z,69.49
2022-12-19T00:05:08.047Z,69.63
2022-12-19T00:07:42.287Z,69.53
2022-12-19T00:10:15.338Z,69.26
2022-12-19T00:12:48.163Z,69.39
2022-12-19T00:15:20.956Z,69.16
2022-12-19T00:17:53.739Z,69.36
2022-12-19T00:20:26.826Z,69.60
2022-12-19T00:23:00.964Z,69.36
2022-12-19T00:25:33.830Z,69.45
2022-12-19T00:28:08.197Z,69.33
2022-12-19T00:30:41.014Z,69.29
2022-12-19T00:33:14.134Z,69.54
2022-12-19T00:35:46.987Z,69.27
2022-12-19T00:38:21.208Z,69.36
2022-12-19T00:40:54.096Z,69.46
2022-12-19T00:43:26.904Z,69.50
2022-12-19T00:46:00.031Z,69.07
2022-12-19T00:48:33.050Z,69.34
2022-12-19T00:51:08.766Z,69.05
2022-12-19T00:53:44.620Z,68.86
2022-12-19T00:56:19.368Z,68.30
2022-12-19T00:58:53.917Z,68.46
2022-12-19T01:01:28.754Z,68.70
2022-12-19T01:06:59.775Z,69.38
2022-12-19T01:09:38.132Z,69.01
2022-12-19T01:12:29.488Z,69.07
2022-12-19T01:15:04.207Z,69.44
2022-12-19T01:17:43.980Z,69.65
2022-12-19T01:20:29.183Z,69.62
2022-12-19T01:23:02.955Z,70.08
2022-12-19T01:25:39.116Z,70.15
2022-12-19T01:28:16.717Z,70.46
2022-12-19T01:30:51.503Z,70.11
2022-12-19T01:33:25.099Z,70.38
2022-12-19T01:35:57.972Z,70.44
2022-12-19T01:38:31.186Z,70.29
2022-12-19T01:41:06.024Z,70.36
2022-12-19T01:43:58.424Z,69.76
2022-12-19T01:46:36.394Z,69.83
2022-12-19T01:49:15.706Z,69.60
2022-12-19T01:51:53.168Z,69.93
2022-12-19T01:54:30.813Z,69.49
2022-12-19T01:57:09.248Z,69.59
2022-12-19T01:59:45.245Z,69.28
2022-12-19T02:02:23.905Z,68.97
2022-12-19T02:04:57.154Z,69.10
2022-12-19T02:07:30.806Z,68.37
2022-12-19T02:10:04.048Z,68.74
2022-12-19T02:12:42.381Z,68.43
2022-12-19T02:15:18.299Z,68.66
2022-12-19T02:18:08.719Z,68.44
2022-12-19T02:21:24.034Z,68.37
2022-12-19T02:24:22.287Z,68.64
2022-12-19T02:27:04.148Z,69.12
2022-12-19T02:29:54.654Z,69.31
2022-12-19T02:32:36.132Z,70.09
2022-12-19T02:35:15.876Z,70.09
2022-12-19T02:37:53.988Z,70.30
2022-12-19T02:40:31.123Z,70.43
2022-12-19T02:43:06.020Z,70.56
2022-12-19T02:45:41.046Z,70.63
2022-12-19T02:48:19.330Z,70.15
2022-12-19T02:50:52.508Z,70.01
2022-12-19T02:53:25.345Z,69.70
2022-12-19T02:56:12.437Z,69.41
2022-12-19T02:59:02.134Z,69.41
2022-12-19T03:01:45.433Z,69.54
2022-12-19T03:04:33.382Z,69.66
2022-12-19T03:07:19.431Z,69.43
2022-12-19T03:09:58.427Z,69.72
2022-12-19T03:12:37.127Z,69.96
2022-12-19T03:15:10.557Z,69.78
2022-12-19T03:17:43.850Z,69.97
2022-12-19T03:20:25.431Z,69.94
2022-12-19T03:22:58.280Z,69.44
2022-12-19T03:25:32.083Z,69.72
2022-12-19T03:28:12.010Z,69.66
2022-12-19T03:30:47.629Z,69.86
2022-12-19T03:33:23.453Z,69.54
2022-12-19T03:36:00.547Z,69.35
2022-12-19T03:38:35.439Z,69.36
2022-12-19T03:41:12.078Z,69.17
2022-12-19T03:43:45.860Z,69.84
2022-12-19T03:46:25.760Z,69.48
2022-12-19T03:48:58.718Z,69.88
2022-12-19T03:51:39.550Z,69.69
2022-12-19T03:54:19.131Z,70.09
2022-12-19T03:56:59.281Z,70.11
2022-12-19T03:59:37.145Z,69.77
2022-12-19T04:02:11.761Z,69.66
2022-12-19T04:04:47.899Z,70.24
2022-12-19T04:07:24.324Z,70.19
2022-12-19T04:10:00.244Z,69.98
2022-12-19T04:12:38.509Z,70.51
2022-12-19T04:15:12.133Z,70.44
2022-12-19T04:17:49.417Z,70.80
2022-12-19T04:20:25.647Z,70.70
2022-12-19T04:23:04.195Z,70.49
2022-12-19T04:25:40.270Z,70.71
2022-12-19T04:28:18.551Z,71.21
2022-12-19T04:30:52.227Z,70.67
2022-12-19T04:33:25.079Z,70.79
2022-12-19T04:35:58.162Z,71.19
2022-12-19T04:38:33.154Z,71.22
2022-12-19T04:41:06.132Z,71.44
2022-12-19T04:43:39.361Z,71.49
2022-12-19T04:46:12.229Z,71.25
2022-12-19T04:48:45.159Z,71.12
2022-12-19T04:51:17.975Z,71.14
2022-12-19T04:53:52.262Z,70.82
2022-12-19T04:56:25.519Z,70.50
2022-12-19T04:58:59.085Z,70.79
2022-12-19T05:01:32.353Z,70.65
2022-12-19T05:04:06.456Z,70.41
2022-12-19T05:06:40.056Z,70.84
2022-12-19T05:09:14.632Z,71.18
2022-12-19T05:11:47.671Z,71.05
2022-12-19T05:14:21.325Z,70.88
2022-12-19T05:17:00.370Z,71.05
2022-12-19T05:19:34.391Z,70.78
2022-12-19T05:22:07.694Z,70.73
2022-12-19T05:24:42.059Z,70.53
2022-12-19T05:27:15.063Z,70.84
2022-12-19T05:29:49.556Z,71.10
2022-12-19T05:32:22.413Z,70.99
2022-12-19T05:34:55.437Z,71.38
2022-12-19T05:37:28.669Z,71.11
2022-12-19T05:40:03.021Z,70.97
2022-12-19T05:42:36.020Z,71.69
2022-12-19T05:45:09.847Z,71.55
2022-12-19T05:47:43.953Z,71.07
2022-12-19T05:50:17.714Z,70.55
2022-12-19T05:52:50.808Z,70.43
2022-12-19T05:55:25.387Z,70.74
2022-12-19T05:57:58.307Z,70.68
2022-12-19T06:00:31.957Z,71.02
2022-12-19T06:03:05.233Z,71.51
2022-12-19T06:05:40.103Z,71.01
2022-12-19T06:08:13.129Z,70.48
2022-12-19T06:10:47.678Z,71.02
2022-12-19T06:13:24.912Z,70.97
2022-12-19T06:16:00.095Z,70.13
2022-12-19T06:18:33.344Z,70.51
2022-12-19T06:21:08.607Z,70.07
2022-12-19T06:23:41.968Z,69.91
2022-12-19T06:26:20.151Z,70.09
2022-12-19T06:28:55.863Z,70.23
2022-12-19T06:31:29.318Z,70.19
2022-12-19T06:34:02.499Z,70.83
2022-12-19T06:36:36.056Z,70.81
2022-12-19T06:39:09.043Z,70.87
2022-12-19T06:42:01.096Z,71.39
2022-12-19T06:44:34.277Z,71.18
2022-12-19T06:47:07.313Z,71.32
2022-12-19T06:49:40.393Z,70.96
2022-12-19T06:52:13.516Z,70.95
2022-12-19T06:54:46.919Z,71.27
2022-12-19T06:57:21.939Z,70.95
2022-12-19T06:59:55.022Z,70.91
2022-12-19T07:02:31.256Z,70.79
2022-12-19T07:05:07.311Z,70.38
2022-12-19T07:07:41.318Z,70.92
2022-12-19T07:10:14.266Z,70.54
2022-12-19T07:12:48.697Z,70.42
2022-12-19T07:15:22.055Z,70.61
2022-12-19T07:17:55.460Z,70.44
2022-12-19T07:20:30.642Z,70.22
2022-12-19T07:23:04.714Z,70.77
2022-12-19T07:25:39.465Z,70.41
2022-12-19T07:28:14.437Z,70.42
2022-12-19T07:30:47.305Z,70.86
2022-12-19T07:33:22.947Z,70.76
2022-12-19T07:35:55.855Z,70.35
2022-12-19T07:38:28.758Z,70.62
2022-12-19T07:41:02.331Z,70.15
2022-12-19T07:43:36.673Z,70.52
2022-12-19T07:46:09.796Z,70.00
2022-12-19T07:48:43.055Z,69.82
2022-12-19T07:51:16.053Z,69.91
2022-12-19T07:53:49.188Z,70.10
2022-12-19T07:56:22.247Z,70.21
2022-12-19T07:58:56.837Z,69.79
2022-12-19T08:01:30.085Z,69.82
2022-12-19T08:04:03.360Z,70.10
2022-12-19T08:06:40.854Z,70.09
2022-12-19T08:09:14.943Z,70.43
2022-12-19T08:11:47.963Z,70.24
2022-12-19T08:14:22.809Z,70.52
2022-12-19T08:17:19.896Z,70.75
2022-12-19T08:19:48.556Z,70.78
2022-12-19T08:22:21.337Z,70.51
2022-12-19T08:24:54.257Z,70.66
2022-12-19T08:27:27.691Z,70.30
2022-12-19T08:30:02.167Z,70.50
2022-12-19T08:32:35.058Z,70.55
2022-12-19T08:35:09.008Z,70.55
2022-12-19T08:37:42.270Z,70.57
2022-12-19T08:40:15.963Z,70.52
2022-12-19T08:42:48.762Z,70.39
2022-12-19T08:45:23.235Z,69.76
2022-12-19T08:47:56.841Z,69.90
2022-12-19T08:50:29.639Z,70.06
2022-12-19T08:53:02.512Z,69.76
2022-12-19T08:55:36.853Z,69.66
2022-12-19T08:58:09.756Z,70.03
2022-12-19T09:00:46.523Z,69.68
2022-12-19T09:03:34.073Z,69.77
2022-12-19T09:06:20.228Z,69.99
2022-12-19T09:08:53.900Z,69.91
2022-12-19T09:11:33.347Z,70.15
2022-12-19T09:14:08.944Z,69.95
2022-12-19T09:16:43.115Z,69.58
2022-12-19T09:19:16.647Z,69.64
2022-12-19T09:21:49.394Z,69.92
2022-12-19T09:24:22.163Z,70.11
2022-12-19T09:26:55.010Z,70.15
2022-12-19T09:29:32.205Z,70.13
2022-12-19T09:32:09.516Z,69.89
2022-12-19T09:34:42.367Z,69.76
2022-12-19T09:37:17.697Z,70.10
2022-12-19T09:39:51.074Z,70.03
2022-12-19T09:42:51.595Z,69.71
2022-12-19T09:45:38.606Z,69.47
2022-12-19T09:48:23.602Z,69.45
2022-12-19T09:51:10.220Z,69.33
2022-12-19T09:53:58.346Z,69.29
2022-12-19T09:56:46.007Z,70.11
2022-12-19T09:59:39.709Z,69.61
2022-12-19T10:02:28.241Z,70.26
2022-12-19T10:05:34.838Z,69.62
2022-12-19T10:08:09.683Z,70.10
2022-12-19T10:12:39.116Z,69.73
2022-12-19T10:13:57.346Z,69.47
2022-12-19T10:16:56.321Z,70.12
2022-12-19T10:19:46.903Z,69.76
2022-12-19T10:22:29.327Z,69.92
2022-12-19T10:25:18.841Z,69.56
2022-12-19T10:27:59.158Z,70.14
2022-12-19T10:30:36.935Z,70.38
2022-12-19T10:33:20.673Z,70.22
2022-12-19T10:35:56.384Z,70.86
2022-12-19T10:38:50.320Z,70.36
2022-12-19T10:41:27.010Z,70.37
2022-12-19T10:44:05.720Z,69.63
2022-12-19T10:46:41.191Z,69.46
2022-12-19T10:49:17.290Z,68.95
2022-12-19T10:52:00.849Z,68.90
2022-12-19T10:54:44.100Z,68.51
2022-12-19T10:57:25.802Z,68.65
2022-12-19T11:00:00.605Z,68.96
2022-12-19T11:02:44.776Z,68.21
2022-12-19T11:05:27.592Z,67.75
2022-12-19T11:08:03.319Z,68.04
2022-12-19T11:11:04.287Z,67.96
2022-12-19T11:20:30.689Z,68.02
2022-12-19T11:23:32.790Z,68.11
2022-12-19T11:29:17.028Z,67.77
2022-12-19T11:29:30.356Z,68.57
2022-12-19T11:29:55.166Z,68.67
2022-12-19T11:30:48.000Z,68.14
2022-12-19T11:34:18.698Z,68.61
2022-12-19T11:36:56.937Z,68.48
2022-12-19T11:39:36.454Z,68.34
2022-12-19T11:42:16.672Z,68.67
2022-12-19T11:44:57.177Z,68.71
2022-12-19T11:47:38.068Z,68.30
2022-12-19T11:50:16.479Z,68.90
2022-12-19T11:53:12.992Z,68.67
2022-12-19T11:55:54.114Z,69.31
2022-12-19T11:58:29.973Z,69.21
2022-12-19T12:01:15.538Z,68.30
2022-12-19T12:04:09.049Z,67.67
2022-12-19T12:06:49.141Z,68.44
2022-12-19T12:14:52.161Z,68.44
2022-12-19T12:19:27.933Z,68.72
2022-12-19T12:30:53.667Z,68.21
2022-12-19T12:31:17.721Z,68.16
2022-12-19T12:31:38.743Z,68.53
2022-12-19T12:31:54.115Z,68.95
2022-12-19T12:31:58.103Z,68.36
2022-12-19T12:31:58.825Z,68.69
2022-12-19T12:35:32.769Z,68.31
2022-12-19T12:38:12.271Z,68.37
2022-12-19T12:40:23.624Z,68.03
2022-12-19T12:43:08.196Z,68.23
2022-12-19T12:45:43.211Z,68.44
2022-12-19T12:48:24.638Z,68.27
2022-12-19T12:51:01.349Z,68.16
2022-12-19T12:53:38.230Z,68.02
2022-12-19T12:56:13.987Z,67.43
2022-12-19T12:59:06.344Z,67.05
2022-12-19T13:01:42.219Z,67.26
2022-12-19T13:04:25.294Z,66.92
2022-12-19T13:07:16.425Z,66.73
2022-12-19T13:09:55.643Z,67.00
2022-12-19T13:12:46.899Z,67.74
2022-12-19T13:15:37.049Z,67.45
2022-12-19T13:18:38.765Z,67.67
2022-12-19T13:21:11.585Z,68.58
2022-12-19T13:23:48.572Z,68.32
2022-12-19T13:26:38.968Z,68.44
2022-12-19T13:29:29.732Z,67.77
2022-12-19T13:32:14.429Z,68.52
2022-12-19T13:35:02.825Z,68.70
2022-12-19T13:39:51.095Z,68.71
2022-12-19T13:40:57.344Z,67.93
2022-12-19T13:43:47.969Z,68.43
2022-12-19T13:46:32.296Z,68.82
2022-12-19T13:49:08.292Z,68.79
2022-12-19T13:51:48.107Z,68.30
2022-12-19T13:54:23.995Z,68.57
2022-12-19T13:56:58.254Z,68.52
2022-12-19T13:59:38.937Z,68.50
2022-12-19T14:02:19.075Z,67.80
2022-12-19T14:04:52.478Z,68.47
2022-12-19T14:07:37.427Z,67.92
2022-12-19T14:11:44.168Z,67.94
2022-12-19T14:13:44.688Z,67.65
2022-12-19T14:16:34.719Z,67.88
2022-12-19T14:19:20.887Z,67.98
2022-12-19T14:22:05.492Z,68.30
2022-12-19T14:24:55.289Z,67.81
2022-12-19T14:28:20.710Z,68.60
2022-12-19T14:30:52.648Z,68.65
2022-12-19T14:33:45.140Z,68.68
2022-12-19T14:36:29.238Z,69.35
2022-12-19T14:39:23.899Z,69.45
2022-12-19T14:42:20.401Z,68.96
2022-12-19T14:51:09.062Z,68.83
2022-12-19T14:53:10.880Z,68.92
2022-12-19T14:54:29.062Z,68.88
2022-12-19T14:56:08.664Z,69.05
2022-12-19T14:58:50.472Z,69.06
2022-12-19T15:01:10.369Z,69.51
2022-12-19T15:03:21.321Z,68.79
2022-12-19T15:06:19.750Z,68.41
2022-12-19T15:10:59.006Z,68.61
2022-12-19T15:14:46.784Z,68.62
2022-12-19T15:15:22.883Z,68.42
2022-12-19T15:17:56.773Z,69.00
2022-12-19T15:20:29.671Z,69.42
2022-12-19T15:23:04.149Z,68.60
2022-12-19T15:26:02.874Z,69.45
2022-12-19T15:28:37.801Z,69.32
2022-12-19T15:31:26.969Z,68.84
2022-12-19T15:34:32.858Z,69.29
2022-12-19T15:36:54.014Z,69.41
2022-12-19T15:39:30.524Z,69.68
2022-12-19T15:42:03.950Z,69.51
2022-12-19T15:44:39.115Z,69.29
2022-12-19T15:47:18.365Z,69.40
2022-12-19T15:49:51.281Z,70.14
2022-12-19T15:52:25.718Z,69.88
2022-12-19T15:54:59.927Z,69.60
2022-12-19T15:57:36.430Z,69.88
2022-12-19T16:00:18.501Z,70.35
2022-12-19T16:05:46.031Z,70.56
2022-12-19T16:08:22.844Z,70.17
2022-12-19T16:11:01.718Z,70.37
2022-12-19T16:13:36.161Z,70.40
2022-12-19T16:16:15.829Z,70.43
2022-12-19T16:18:49.497Z,71.00
2022-12-19T16:21:31.574Z,70.82
2022-12-19T16:24:07.251Z,70.62
2022-12-19T16:26:41.849Z,70.72
2022-12-19T16:29:20.159Z,71.10
2022-12-19T16:31:53.101Z,71.38
2022-12-19T16:34:28.937Z,71.22
2022-12-19T16:37:01.999Z,71.20
2022-12-19T16:39:34.970Z,71.11
2022-12-19T16:42:15.671Z,71.30
2022-12-19T16:44:49.319Z,71.12
2022-12-19T16:47:22.871Z,71.25
2022-12-19T16:49:55.813Z,71.59
2022-12-19T16:52:28.890Z,71.46
2022-12-19T16:55:02.036Z,71.66
2022-12-19T16:57:36.480Z,71.92
2022-12-19T17:00:16.134Z,71.98
2022-12-19T17:02:51.590Z,72.14
2022-12-19T17:05:26.585Z,72.20
2022-12-19T17:08:00.119Z,71.94
2022-12-19T17:10:35.120Z,71.92
2022-12-19T17:13:14.093Z,71.83
2022-12-19T17:15:52.624Z,71.72
2022-12-19T17:18:31.874Z,72.11
2022-12-19T17:21:04.838Z,72.18
2022-12-19T17:23:37.675Z,72.03
2022-12-19T17:26:17.298Z,72.23
2022-12-19T17:28:52.146Z,72.54
2022-12-19T17:31:29.085Z,72.13
2022-12-19T17:34:02.215Z,72.30
2022-12-19T17:36:37.863Z,72.47
2022-12-19T17:39:20.236Z,72.32
2022-12-19T17:41:54.261Z,72.38
2022-12-19T17:44:28.771Z,72.25
2022-12-19T17:47:01.747Z,72.57
2022-12-19T17:49:36.000Z,72.35
2022-12-19T17:52:14.633Z,72.65
2022-12-19T17:54:47.951Z,72.79
2022-12-19T17:57:20.807Z,72.43
2022-12-19T17:59:55.012Z,72.80
2022-12-19T18:02:28.693Z,72.61
2022-12-19T18:05:01.799Z,73.13
2022-12-19T18:07:34.678Z,73.17
2022-12-19T18:10:16.044Z,72.53
2022-12-19T18:12:49.017Z,72.68
2022-12-19T18:15:24.691Z,73.17
2022-12-19T18:17:58.825Z,73.12
2022-12-19T18:20:33.754Z,72.69
2022-12-19T18:23:15.344Z,72.74
2022-12-19T18:25:49.095Z,72.50
2022-12-19T18:28:22.006Z,72.50
2022-12-19T18:31:01.289Z,72.46
2022-12-19T18:33:39.273Z,72.70
2022-12-19T18:36:19.768Z,72.79
2022-12-19T18:38:55.093Z,72.84
2022-12-19T18:41:28.048Z,72.55
2022-12-19T18:44:00.907Z,72.90
2022-12-19T18:46:35.910Z,72.34
2022-12-19T18:49:13.697Z,72.33
2022-12-19T18:51:46.664Z,72.70
2022-12-19T18:54:21.634Z,72.23
2022-12-19T18:56:54.472Z,72.59
2022-12-19T18:59:27.728Z,72.30
2022-12-19T19:02:02.222Z,72.41
2022-12-19T19:04:35.312Z,72.36
2022-12-19T19:07:11.190Z,72.08
2022-12-19T19:09:44.057Z,72.21
2022-12-19T19:12:17.865Z,72.32
2022-12-19T19:14:50.717Z,72.23
2022-12-19T19:17:30.522Z,72.57
2022-12-19T19:20:04.135Z,71.92
2022-12-19T19:22:36.937Z,72.15
2022-12-19T19:25:10.613Z,72.41
2022-12-19T19:27:43.534Z,72.45
2022-12-19T19:30:16.810Z,72.22
2022-12-19T19:32:55.235Z,72.56
2022-12-19T19:35:28.702Z,72.34
2022-12-19T19:38:06.651Z,72.34
2022-12-19T19:40:39.717Z,72.44
2022-12-19T19:43:12.819Z,72.24
2022-12-19T19:45:46.870Z,72.40
2022-12-19T19:48:21.370Z,72.61
2022-12-19T19:50:54.389Z,72.56
2022-12-19T19:53:27.389Z,72.86
2022-12-19T19:56:01.962Z,72.98
2022-12-19T19:58:34.930Z,72.64
2022-12-19T20:01:09.332Z,72.84
2022-12-19T20:03:44.858Z,73.03
2022-12-19T20:06:19.285Z,72.96
2022-12-19T20:08:52.238Z,73.13
2022-12-19T20:11:25.094Z,73.10
2022-12-19T20:13:58.055Z,72.77
2022-12-19T20:16:32.248Z,72.85
2022-12-19T20:19:08.778Z,72.83
2022-12-19T20:21:41.777Z,73.12
2022-12-19T20:24:14.682Z,73.39
2022-12-19T20:26:47.798Z,73.28
2022-12-19T20:29:20.755Z,73.36
2022-12-19T20:31:53.891Z,73.44
2022-12-19T20:34:28.147Z,73.33
2022-12-19T20:37:01.085Z,73.23
2022-12-19T20:39:34.464Z,73.57
2022-12-19T20:42:09.496Z,73.13
2022-12-19T20:44:42.376Z,72.78
2022-12-19T20:47:15.722Z,73.18
2022-12-19T20:49:50.014Z,73.25
2022-12-19T20:52:22.889Z,73.27
2022-12-19T20:54:55.751Z,73.24
2022-12-19T20:57:30.437Z,73.19
2022-12-19T21:00:03.496Z,73.10
2022-12-19T21:02:59.946Z,73.16
2022-12-19T21:05:30.533Z,73.38
2022-12-19T21:08:03.489Z,73.12
2022-12-19T21:10:37.313Z,73.57
2022-12-19T21:13:10.332Z,73.15
2022-12-19T21:15:43.335Z,73.29
2022-12-19T21:18:16.468Z,73.49
2022-12-19T21:20:51.105Z,73.55
2022-12-19T21:23:25.366Z,73.54
2022-12-19T21:25:59.839Z,73.53
2022-12-19T21:28:33.416Z,73.64
2022-12-19T21:31:08.968Z,73.39
2022-12-19T21:33:41.861Z,73.61
2022-12-19T21:36:20.231Z,73.38
2022-12-19T21:38:55.568Z,73.18
2022-12-19T21:41:29.522Z,73.34
2022-12-19T21:44:02.455Z,73.25
2022-12-19T21:46:35.357Z,73.81
2022-12-19T21:49:08.741Z,73.18
2022-12-19T21:51:43.008Z,73.68
2022-12-19T21:54:16.102Z,73.68
2022-12-19T21:56:49.211Z,73.71
2022-12-19T21:59:22.156Z,73.36
2022-12-19T22:01:55.151Z,73.41
2022-12-19T22:04:28.625Z,73.15
2022-12-19T22:07:05.660Z,73.65
2022-12-19T22:09:38.521Z,73.44
2022-12-19T22:12:14.017Z,73.23
2022-12-19T22:14:46.937Z,72.85
2022-12-19T22:17:19.899Z,73.43
2022-12-19T22:19:52.773Z,73.05
2022-12-19T22:22:26.975Z,73.20
2022-12-19T22:25:00.145Z,73.40
2022-12-19T22:27:33.108Z,72.93
2022-12-19T22:30:11.129Z,72.91
2022-12-19T22:32:44.312Z,73.12
2022-12-19T22:35:17.826Z,72.97
2022-12-19T22:37:52.120Z,72.77
2022-12-19T22:40:24.989Z,72.69
2022-12-19T22:42:57.893Z,73.14
2022-12-19T22:45:31.744Z,72.79
2022-12-19T22:48:04.776Z,73.02
2022-12-19T22:50:37.743Z,72.69
2022-12-19T22:53:13.068Z,72.40
2022-12-19T22:55:46.080Z,72.83
2022-12-19T22:58:18.932Z,72.34
2022-12-19T23:00:51.868Z,72.71
2022-12-19T23:03:24.826Z,72.46
2022-12-19T23:05:57.885Z,72.69
2022-12-19T23:08:32.436Z,72.39
2022-12-19T23:11:05.853Z,72.59
2022-12-19T23:13:38.745Z,73.10
2022-12-19T23:16:13.306Z,72.87
2022-12-19T23:18:46.314Z,72.71
2022-12-19T23:21:21.454Z,73.07
2022-12-19T23:23:57.142Z,72.89
2022-12-19T23:26:32.674Z,73.34
2022-12-19T23:29:07.950Z,72.89
2022-12-19T23:31:42.876Z,73.38
2022-12-19T23:34:16.453Z,73.11
2022-12-19T23:39:43.414Z,73.32
2022-12-19T23:42:16.192Z,73.03
2022-12-19T23:44:51.411Z,73.49
2022-12-19T23:47:24.234Z,73.51
2022-12-19T23:49:57.097Z,73.21
2022-12-19T23:52:30.098Z,73.21
2022-12-19T23:55:05.339Z,73.24
2022-12-19T23:57:38.291Z,73.25
